sensor_id;sensor_type;location;lat;lon;timestamp;pressure;altitude;pressure_sealevel;temperature;humidity
84169;BME280;74295;50.146;8.794;2024-02-23T00:00:03;98307.47;;;8.67;70.12
84169;BME280;74295;50.146;8.794;2024-02-23T00:10:07;98346.66;;;8.69;71.37
84169;BME280;74295;50.146;8.794;2024-02-23T00:20:11;98358.09;;;8.56;72.86
84169;BME280;74295;50.146;8.794;2024-02-23T00:30:17;98386.47;;;8.49;70.43
84169;BME280;74295;50.146;8.794;2024-02-23T00:40:21;98406.97;;;8.55;67.79
84169;BME280;74295;50.146;8.794;2024-02-23T00:50:25;98435.31;;;8.57;68.60
84169;BME280;74295;50.146;8.794;2024-02-23T01:00:29;98434.38;;;8.28;67.91
84169;BME280;74295;50.146;8.794;2024-02-23T01:10:32;98456.03;;;7.98;68.15
84169;BME280;74295;50.146;8.794;2024-02-23T01:20:36;98465.25;;;7.87;68.94
84169;BME280;74295;50.146;8.794;2024-02-23T01:30:39;98481.69;;;8.01;67.99
84169;BME280;74295;50.146;8.794;2024-02-23T01:40:43;98496.03;;;7.71;68.81
84169;BME280;74295;50.146;8.794;2024-02-23T01:50:46;98549.16;;;7.65;70.57
84169;BME280;74295;50.146;8.794;2024-02-23T02:00:50;98568.88;;;7.56;69.39
84169;BME280;74295;50.146;8.794;2024-02-23T02:10:53;98572.06;;;7.33;69.51
84169;BME280;74295;50.146;8.794;2024-02-23T02:20:57;98590.94;;;7.18;69.11
84169;BME280;74295;50.146;8.794;2024-02-23T02:31:00;98605.16;;;7.08;66.47
84169;BME280;74295;50.146;8.794;2024-02-23T02:41:06;98617.53;;;6.94;67.22
84169;BME280;74295;50.146;8.794;2024-02-23T02:51:08;98623.66;;;6.80;66.91
84169;BME280;74295;50.146;8.794;2024-02-23T03:01:13;98644.38;;;6.74;66.64
84169;BME280;74295;50.146;8.794;2024-02-23T03:11:16;98647.00;;;6.64;68.15
84169;BME280;74295;50.146;8.794;2024-02-23T03:21:20;98679.91;;;6.71;70.15
84169;BME280;74295;50.146;8.794;2024-02-23T03:31:23;98696.63;;;6.73;69.96
84169;BME280;74295;50.146;8.794;2024-02-23T03:41:27;98690.72;;;6.76;69.34
84169;BME280;74295;50.146;8.794;2024-02-23T03:51:30;98703.81;;;6.63;70.73
84169;BME280;74295;50.146;8.794;2024-02-23T04:01:35;98725.59;;;6.56;71.50
84169;BME280;74295;50.146;8.794;2024-02-23T04:11:40;98691.03;;;6.38;71.48
84169;BME280;74295;50.146;8.794;2024-02-23T04:21:44;98690.50;;;6.05;73.06
84169;BME280;74295;50.146;8.794;2024-02-23T04:31:46;98703.59;;;5.96;73.52
84169;BME280;74295;50.146;8.794;2024-02-23T04:41:50;98715.38;;;6.22;72.38
84169;BME280;74295;50.146;8.794;2024-02-23T04:51:53;98720.25;;;6.25;72.54
84169;BME280;74295;50.146;8.794;2024-02-23T05:01:57;98728.81;;;6.22;71.77
84169;BME280;74295;50.146;8.794;2024-02-23T05:12:02;98737.19;;;5.94;72.87
84169;BME280;74295;50.146;8.794;2024-02-23T05:22:07;98741.16;;;5.86;74.04
84169;BME280;74295;50.146;8.794;2024-02-23T05:32:09;98737.97;;;5.89;74.14
84169;BME280;74295;50.146;8.794;2024-02-23T05:42:13;98748.25;;;5.97;74.20
84169;BME280;74295;50.146;8.794;2024-02-23T05:52:16;98748.50;;;5.96;74.61
84169;BME280;74295;50.146;8.794;2024-02-23T06:02:20;98755.00;;;6.00;74.79
84169;BME280;74295;50.146;8.794;2024-02-23T06:12:24;98759.25;;;5.96;74.87
84169;BME280;74295;50.146;8.794;2024-02-23T06:22:28;98772.00;;;6.05;75.19
84169;BME280;74295;50.146;8.794;2024-02-23T06:32:31;98799.44;;;6.07;74.92
84169;BME280;74295;50.146;8.794;2024-02-23T06:42:35;98816.75;;;6.16;74.56
84169;BME280;74295;50.146;8.794;2024-02-23T06:52:38;98827.34;;;6.28;73.84
84169;BME280;74295;50.146;8.794;2024-02-23T07:02:43;98815.84;;;6.32;74.36
84169;BME280;74295;50.146;8.794;2024-02-23T07:12:46;98828.38;;;6.53;71.17
84169;BME280;74295;50.146;8.794;2024-02-23T07:22:50;98835.97;;;6.61;70.00
84169;BME280;74295;50.146;8.794;2024-02-23T07:32:52;98817.53;;;6.75;69.40
84169;BME280;74295;50.146;8.794;2024-02-23T07:42:57;98823.81;;;6.85;69.08
84169;BME280;74295;50.146;8.794;2024-02-23T07:52:59;98840.16;;;6.79;68.07
84169;BME280;74295;50.146;8.794;2024-02-23T08:03:04;98851.88;;;6.94;66.93
84169;BME280;74295;50.146;8.794;2024-02-23T08:13:07;98870.53;;;7.52;65.60
84169;BME280;74295;50.146;8.794;2024-02-23T08:23:13;98859.09;;;7.87;62.07
84169;BME280;74295;50.146;8.794;2024-02-23T08:33:16;98864.53;;;7.92;62.51
84169;BME280;74295;50.146;8.794;2024-02-23T08:43:20;98864.56;;;8.02;62.36
84169;BME280;74295;50.146;8.794;2024-02-23T08:53:23;98869.13;;;7.87;62.97
84169;BME280;74295;50.146;8.794;2024-02-23T09:03:27;98887.34;;;7.64;63.72
84169;BME280;74295;50.146;8.794;2024-02-23T09:13:29;98876.38;;;7.91;64.06
84169;BME280;74295;50.146;8.794;2024-02-23T09:23:33;98882.63;;;7.97;64.32
84169;BME280;74295;50.146;8.794;2024-02-23T09:33:36;98863.94;;;7.75;64.19
84169;BME280;74295;50.146;8.794;2024-02-23T09:43:42;98862.09;;;7.91;64.46
84169;BME280;74295;50.146;8.794;2024-02-23T09:53:49;98846.75;;;7.96;64.31
84169;BME280;74295;50.146;8.794;2024-02-23T10:03:54;98863.31;;;8.30;63.45
84169;BME280;74295;50.146;8.794;2024-02-23T10:13:59;98865.25;;;8.89;63.06
84169;BME280;74295;50.146;8.794;2024-02-23T10:24:04;98863.34;;;9.00;59.70
84169;BME280;74295;50.146;8.794;2024-02-23T10:34:08;98846.03;;;9.16;59.78
84169;BME280;74295;50.146;8.794;2024-02-23T10:44:16;98856.22;;;9.54;59.10
84169;BME280;74295;50.146;8.794;2024-02-23T10:54:20;98851.66;;;9.39;58.49
84169;BME280;74295;50.146;8.794;2024-02-23T11:04:25;98836.47;;;9.53;59.84
84169;BME280;74295;50.146;8.794;2024-02-23T11:14:31;98834.69;;;9.19;58.92
84169;BME280;74295;50.146;8.794;2024-02-23T11:24:42;98841.44;;;9.21;59.96
84169;BME280;74295;50.146;8.794;2024-02-23T11:34:54;98844.72;;;8.98;60.48
84169;BME280;74295;50.146;8.794;2024-02-23T11:45:00;98847.13;;;9.10;62.48
84169;BME280;74295;50.146;8.794;2024-02-23T11:55:04;98857.44;;;8.68;68.34
84169;BME280;74295;50.146;8.794;2024-02-23T12:05:09;98877.53;;;8.05;73.42
84169;BME280;74295;50.146;8.794;2024-02-23T12:15:12;98854.06;;;8.16;76.83
84169;BME280;74295;50.146;8.794;2024-02-23T12:25:17;98845.25;;;8.45;74.49
84169;BME280;74295;50.146;8.794;2024-02-23T12:35:21;98845.00;;;8.62;73.17
84169;BME280;74295;50.146;8.794;2024-02-23T12:45:25;98827.66;;;9.13;71.73
84169;BME280;74295;50.146;8.794;2024-02-23T12:55:28;98826.84;;;9.17;68.16
84169;BME280;74295;50.146;8.794;2024-02-23T13:05:32;98817.09;;;9.21;67.91
84169;BME280;74295;50.146;8.794;2024-02-23T13:15:34;98808.19;;;9.26;66.48
84169;BME280;74295;50.146;8.794;2024-02-23T13:25:40;98814.75;;;8.65;71.01
84169;BME280;74295;50.146;8.794;2024-02-23T13:35:42;98825.97;;;8.02;75.82
84169;BME280;74295;50.146;8.794;2024-02-23T13:45:50;98825.97;;;8.02;78.54
84169;BME280;74295;50.146;8.794;2024-02-23T13:55:53;98832.72;;;7.99;76.84
84169;BME280;74295;50.146;8.794;2024-02-23T14:05:57;98823.94;;;8.49;74.20
84169;BME280;74295;50.146;8.794;2024-02-23T14:16:00;98813.66;;;8.31;77.30
84169;BME280;74295;50.146;8.794;2024-02-23T14:26:06;98796.66;;;8.60;77.18
84169;BME280;74295;50.146;8.794;2024-02-23T14:36:09;98782.78;;;9.22;75.22
84169;BME280;74295;50.146;8.794;2024-02-23T14:46:13;98775.72;;;9.21;66.78
84169;BME280;74295;50.146;8.794;2024-02-23T14:56:16;98763.34;;;9.10;64.81
84169;BME280;74295;50.146;8.794;2024-02-23T15:06:21;98779.69;;;9.48;64.18
84169;BME280;74295;50.146;8.794;2024-02-23T15:16:26;98773.41;;;8.84;68.52
84169;BME280;74295;50.146;8.794;2024-02-23T15:26:31;98770.47;;;8.51;70.83
84169;BME280;74295;50.146;8.794;2024-02-23T15:36:34;98764.47;;;8.84;71.45
84169;BME280;74295;50.146;8.794;2024-02-23T15:46:38;98771.94;;;9.32;68.23
84169;BME280;74295;50.146;8.794;2024-02-23T15:56:43;98779.06;;;8.98;66.20
84169;BME280;74295;50.146;8.794;2024-02-23T16:06:47;98782.31;;;8.70;66.60
84169;BME280;74295;50.146;8.794;2024-02-23T16:16:49;98782.50;;;9.18;65.45
84169;BME280;74295;50.146;8.794;2024-02-23T16:26:53;98787.19;;;8.43;68.52
84169;BME280;74295;50.146;8.794;2024-02-23T16:36:56;98789.75;;;7.77;72.45
84169;BME280;74295;50.146;8.794;2024-02-23T16:47:01;98783.97;;;7.39;73.42
84169;BME280;74295;50.146;8.794;2024-02-23T16:57:04;98791.63;;;7.10;75.50
84169;BME280;74295;50.146;8.794;2024-02-23T17:07:08;98796.63;;;6.92;77.32
84169;BME280;74295;50.146;8.794;2024-02-23T17:17:11;98775.03;;;6.82;77.52
84169;BME280;74295;50.146;8.794;2024-02-23T17:27:16;98792.03;;;6.87;75.20
84169;BME280;74295;50.146;8.794;2024-02-23T17:37:19;98793.69;;;6.93;75.75
84169;BME280;74295;50.146;8.794;2024-02-23T17:47:24;98796.81;;;7.27;74.44
84169;BME280;74295;50.146;8.794;2024-02-23T17:57:27;98794.22;;;7.42;73.32
84169;BME280;74295;50.146;8.794;2024-02-23T18:07:31;98817.97;;;7.45;73.22
84169;BME280;74295;50.146;8.794;2024-02-23T18:17:33;98829.34;;;7.05;74.81
84169;BME280;74295;50.146;8.794;2024-02-23T18:27:38;98823.06;;;6.95;75.62
84169;BME280;74295;50.146;8.794;2024-02-23T18:37:41;98841.94;;;7.00;74.87
84169;BME280;74295;50.146;8.794;2024-02-23T18:47:48;98829.78;;;6.92;75.41
84169;BME280;74295;50.146;8.794;2024-02-23T18:57:50;98828.88;;;6.82;75.87
84169;BME280;74295;50.146;8.794;2024-02-23T19:07:55;98833.84;;;6.58;75.88
84169;BME280;74295;50.146;8.794;2024-02-23T19:17:57;98826.75;;;6.21;76.55
84169;BME280;74295;50.146;8.794;2024-02-23T19:28:02;98834.34;;;6.29;78.24
84169;BME280;74295;50.146;8.794;2024-02-23T19:38:04;98825.16;;;6.88;76.47
84169;BME280;74295;50.146;8.794;2024-02-23T19:48:09;98833.72;;;7.16;74.77
84169;BME280;74295;50.146;8.794;2024-02-23T19:58:11;98817.44;;;7.01;74.95
84169;BME280;74295;50.146;8.794;2024-02-23T20:08:15;98812.72;;;6.45;77.19
84169;BME280;74295;50.146;8.794;2024-02-23T20:18:18;98812.59;;;6.04;79.52
84169;BME280;74295;50.146;8.794;2024-02-23T20:28:22;98826.06;;;5.61;80.17
84169;BME280;74295;50.146;8.794;2024-02-23T20:38:25;98828.38;;;5.30;81.94
84169;BME280;74295;50.146;8.794;2024-02-23T20:48:29;98814.38;;;4.90;84.33
84169;BME280;74295;50.146;8.794;2024-02-23T20:58:32;98807.50;;;4.61;85.59
84169;BME280;74295;50.146;8.794;2024-02-23T21:08:36;98824.31;;;4.24;86.63
84169;BME280;74295;50.146;8.794;2024-02-23T21:18:39;98821.63;;;4.07;86.41
84169;BME280;74295;50.146;8.794;2024-02-23T21:28:43;98827.28;;;3.94;86.73
84169;BME280;74295;50.146;8.794;2024-02-23T21:38:46;98819.91;;;3.73;87.58
84169;BME280;74295;50.146;8.794;2024-02-23T21:48:50;98825.09;;;3.63;87.67
84169;BME280;74295;50.146;8.794;2024-02-23T21:58:53;98828.50;;;3.47;88.92
84169;BME280;74295;50.146;8.794;2024-02-23T22:08:57;98835.66;;;3.30;88.41
84169;BME280;74295;50.146;8.794;2024-02-23T22:19:00;98834.28;;;3.16;88.38
84169;BME280;74295;50.146;8.794;2024-02-23T22:29:04;98835.31;;;3.04;89.09
84169;BME280;74295;50.146;8.794;2024-02-23T22:39:07;98826.03;;;2.95;89.31
84169;BME280;74295;50.146;8.794;2024-02-23T22:49:11;98820.00;;;2.76;90.06
84169;BME280;74295;50.146;8.794;2024-02-23T22:59:14;98836.38;;;2.68;90.41
84169;BME280;74295;50.146;8.794;2024-02-23T23:09:18;98836.72;;;2.60;90.22
84169;BME280;74295;50.146;8.794;2024-02-23T23:19:21;98834.41;;;2.52;90.44
84169;BME280;74295;50.146;8.794;2024-02-23T23:29:27;98855.66;;;2.47;90.03
84169;BME280;74295;50.146;8.794;2024-02-23T23:39:29;98876.34;;;2.40;90.32
84169;BME280;74295;50.146;8.794;2024-02-23T23:49:33;98867.41;;;2.46;90.76
84169;BME280;74295;50.146;8.794;2024-02-23T23:59:37;98867.69;;;2.67;91.39
